Savoy, Massachusetts
Current Conditions -  °F | °C
As of 7:52 AM on Wednesday 22 Oct 2014 (Local Time) from KAQW Reporting Station
Overcast Overcast  
Wind Chill: 51°   Ceiling: 1900
Heat Index: 51°   Visibility: 10mi
Dew Point: 45°   Wind: 13mph
Humidity: 80%   Direction: 110°ESE
Pressure: 30.04"   Gusts: 20mph
Location:  42.57°N, 73.03°W
Report Text: KAQW 221152Z AUTO 11011G17KT 10SM OVC019 11/07 A3004 RMK AO2 SLP176 70012 T01060072 10111 20100 53011
Loading
Personal Weather Stations






























Interactive Weather Map
Tropical Storm Tracking
New forecast layout! Learn more

10-Day Weather Forecast

Advertisements
Track Severe Weather on mobile